Terminal Aerodrome Forecast
Issued by NWS Wilmington, OH

Current Version | Previous Version | Graphics & Text | Print | Product List | Glossary On
Versions: 1 2 3 4 5 6 7 8 9 10 11 12 13 14 15 16 17 18 19 20 21
000
FTUS41 KILN 290500
TAFILN
TAF
KILN 290537Z 2906/3006 16012KT P6SM OVC200
     FM291000 17014KT P6SM BKN060 OVC120
      TEMPO 2913/2915 5SM -SHRA
     FM291700 21016G26KT P6SM VCSH BKN018 OVC120
     FM292000 26017G27KT P6SM OVC009
     FM300100 29015G23KT P6SM OVC012=

USA.gov is the U.S. government's official web portal to all federal, state and local government web resources and services.